Time;durP1;ratioP1;P1;durP2;ratioP2;P2;SDS_P1;SDS_P2;PMS_P1;PMS_P2;Temp;Humidity;BMP_temperature;BMP_pressure;BME280_temperature;BME280_humidity;BME280_pressure;Samples;Min_cycle;Max_cycle;Signal;HPM_P1;HPM_P2
2022/11/09 00:02:06;;;;;;;10.90;7.00;;;;;;;8.79;72.61;96774.59;104795;1308;22485;-80
2022/11/09 00:04:39;;;;;;;10.10;6.30;;;;;;;8.86;72.41;96781.36;104782;1300;24338;-80
2022/11/09 00:07:10;;;;;;;10.50;7.10;;;;;;;8.85;72.11;96782.74;104747;1308;29255;-80
2022/11/09 00:09:41;;;;;;;10.90;7.10;;;;;;;8.79;72.23;96784.32;104793;1287;25302;-80
2022/11/09 00:12:12;;;;;;;12.00;7.50;;;;;;;8.75;72.38;96775.86;104815;1293;22484;-80
2022/11/09 00:14:44;;;;;;;11.30;8.10;;;;;;;8.75;72.43;96780.25;104777;1308;22719;-80
2022/11/09 00:17:15;;;;;;;10.30;7.40;;;;;;;8.73;72.38;96778.17;104768;1308;30169;-80
2022/11/09 00:19:48;;;;;;;11.10;7.60;;;;;;;8.65;72.29;96782.97;104789;1308;23016;-80
2022/11/09 00:22:19;;;;;;;12.50;7.70;;;;;;;8.57;72.52;96782.41;104803;1299;24150;-80
2022/11/09 00:24:51;;;;;;;10.90;6.70;;;;;;;8.59;73.02;96776.30;104771;1302;22474;-80
2022/11/09 00:27:22;;;;;;;10.20;7.30;;;;;;;8.63;72.83;96777.11;104738;1308;22609;-80
2022/11/09 00:29:53;;;;;;;10.60;6.00;;;;;;;8.58;72.99;96778.35;104796;1293;22495;-79
2022/11/09 00:32:24;;;;;;;11.40;7.60;;;;;;;8.59;73.19;96781.11;104785;1295;22555;-80
2022/11/09 00:34:55;;;;;;;10.20;7.50;;;;;;;8.55;72.99;96780.73;104786;1283;22470;-80
2022/11/09 00:37:29;;;;;;;11.60;7.20;;;;;;;8.51;73.25;96779.61;104729;1301;22484;-80
2022/11/09 00:40:00;;;;;;;11.90;7.20;;;;;;;8.50;73.22;96780.51;104799;1299;22518;-80
2022/11/09 00:42:31;;;;;;;12.80;7.90;;;;;;;8.44;73.21;96783.45;104792;1300;22465;-79
2022/11/09 00:45:03;;;;;;;10.60;7.40;;;;;;;8.41;73.30;96785.06;104786;1308;22486;-79
2022/11/09 00:47:34;;;;;;;10.60;8.00;;;;;;;8.37;73.20;96786.43;104764;1286;22453;-79
2022/11/09 00:50:06;;;;;;;11.00;7.00;;;;;;;8.35;73.43;96781.30;104791;1308;23192;-79
2022/11/09 00:52:37;;;;;;;10.10;6.60;;;;;;;8.41;73.77;96783.00;104825;1292;23345;-79
2022/11/09 00:55:09;;;;;;;11.80;7.80;;;;;;;8.42;73.73;96782.80;104825;1292;23843;-80
2022/11/09 00:57:40;;;;;;;10.80;6.80;;;;;;;8.39;73.59;96777.77;104731;1300;22491;-80
2022/11/09 01:00:18;;;;;;;10.60;7.30;;;;;;;8.34;73.61;96783.14;104793;1308;22486;-80
2022/11/09 01:02:50;;;;;;;12.30;8.10;;;;;;;8.30;73.68;96784.05;104825;1307;22493;-79
2022/11/09 01:05:21;;;;;;;10.80;7.40;;;;;;;8.28;73.70;96779.81;104801;1304;22687;-79
2022/11/09 01:07:52;;;;;;;11.50;8.10;;;;;;;8.26;73.95;96778.80;104739;1303;22524;-80
2022/11/09 01:10:24;;;;;;;12.00;7.60;;;;;;;8.25;74.06;96774.20;104779;1308;22494;-80
2022/11/09 01:12:55;;;;;;;11.00;7.40;;;;;;;8.28;74.35;96775.70;104805;1308;22475;-79
2022/11/09 01:15:26;;;;;;;11.00;7.30;;;;;;;8.29;74.15;96778.02;104775;1305;22502;-79
2022/11/09 01:17:57;;;;;;;11.60;7.30;;;;;;;8.26;74.22;96771.47;104755;1300;22507;-79
2022/11/09 01:20:28;;;;;;;11.40;8.10;;;;;;;8.28;74.36;96773.80;104831;1308;24146;-79
2022/11/09 01:22:59;;;;;;;11.80;8.00;;;;;;;8.24;74.03;96769.45;104768;1299;22476;-80
2022/11/09 01:25:30;;;;;;;12.10;8.30;;;;;;;8.24;74.39;96764.80;104766;1308;22486;-79
2022/11/09 01:28:02;;;;;;;11.00;6.80;;;;;;;8.31;74.71;96764.20;104723;1293;22520;-80
2022/11/09 01:30:35;;;;;;;11.50;6.80;;;;;;;8.35;74.53;96770.73;104807;1299;22533;-79
2022/11/09 01:33:08;;;;;;;11.30;6.40;;;;;;;8.38;74.55;96761.55;104809;1300;22457;-79
2022/11/09 01:35:41;;;;;;;10.80;6.30;;;;;;;8.39;74.56;96758.11;104784;1295;25480;-79
2022/11/09 01:38:14;;;;;;;10.10;7.00;;;;;;;8.37;74.42;96764.03;104734;1303;27502;-79
2022/11/09 01:40:45;;;;;;;12.10;8.30;;;;;;;8.34;74.54;96762.64;104780;1293;24277;-79
2022/11/09 01:43:22;;;;;;;10.40;5.70;;;;;;;8.33;74.70;96760.58;104824;1301;22476;-80
2022/11/09 01:45:58;;;;;;;13.50;7.80;;;;;;;8.37;74.69;96761.98;104873;1308;22465;-79
2022/11/09 01:48:37;;;;;;;12.90;8.10;;;;;;;8.39;74.60;96761.71;104765;1308;22715;-79
2022/11/09 01:51:14;;;;;;;12.30;9.10;;;;;;;8.33;74.62;96756.67;104792;1299;22469;-79
2022/11/09 01:53:49;;;;;;;13.50;7.90;;;;;;;8.26;74.60;96759.58;104794;1293;22465;-79
2022/11/09 01:56:22;;;;;;;11.50;7.70;;;;;;;8.22;74.70;96755.04;104763;1308;26190;-79
2022/11/09 01:58:58;;;;;;;12.70;8.80;;;;;;;8.19;74.80;96754.60;104774;1308;22478;-79
2022/11/09 02:01:30;;;;;;;11.50;7.70;;;;;;;8.15;74.85;96752.77;104789;1293;26712;-79
2022/11/09 02:04:07;;;;;;;12.30;9.00;;;;;;;8.13;75.07;96751.77;104818;1293;24439;-79
2022/11/09 02:06:39;;;;;;;12.20;8.90;;;;;;;8.11;75.13;96746.70;104718;1308;22506;-79
2022/11/09 02:09:23;;;;;;;12.30;7.90;;;;;;;8.09;75.14;96751.08;104807;1294;25356;-80
2022/11/09 02:11:55;;;;;;;13.10;8.60;;;;;;;8.06;75.35;96756.40;104815;1308;23176;-79
2022/11/09 02:14:29;;;;;;;13.90;9.20;;;;;;;8.06;75.79;96749.11;104772;1308;24277;-80
2022/11/09 02:17:01;;;;;;;12.70;8.50;;;;;;;8.06;75.62;96748.32;104795;1308;22472;-79
2022/11/09 02:19:34;;;;;;;13.10;9.30;;;;;;;8.02;75.86;96741.44;104851;1287;25352;-79
2022/11/09 02:22:05;;;;;;;12.30;8.90;;;;;;;8.05;75.83;96743.88;104810;1308;22469;-79
2022/11/09 02:24:36;;;;;;;15.00;9.20;;;;;;;8.01;75.86;96737.20;104765;1300;25349;-79
2022/11/09 02:27:08;;;;;;;12.50;8.50;;;;;;;7.95;76.04;96737.77;104733;1293;22488;-79
2022/11/09 02:29:42;;;;;;;13.40;8.80;;;;;;;7.92;76.18;96732.59;104712;1308;22524;-80
2022/11/09 02:32:20;;;;;;;10.30;7.80;;;;;;;7.92;76.34;96730.73;104772;1301;22504;-79
2022/11/09 02:34:51;;;;;;;12.90;8.00;;;;;;;7.93;76.62;96728.38;104807;1300;22509;-79
2022/11/09 02:37:31;;;;;;;13.30;8.50;;;;;;;7.94;76.59;96722.03;104765;1295;22519;-79
2022/11/09 02:40:07;;;;;;;11.10;8.00;;;;;;;7.92;76.69;96724.45;104790;1308;22481;-79
2022/11/09 02:42:39;;;;;;;11.90;7.80;;;;;;;7.89;76.62;96722.06;104810;1307;22483;-79
2022/11/09 02:45:14;;;;;;;13.40;8.40;;;;;;;7.83;76.64;96719.45;104795;1308;22469;-79
2022/11/09 02:47:45;;;;;;;12.20;8.70;;;;;;;7.75;76.81;96720.10;104725;1308;22493;-79
2022/11/09 02:50:17;;;;;;;12.80;9.00;;;;;;;7.73;76.90;96720.13;104828;1308;22467;-79
2022/11/09 02:52:48;;;;;;;11.60;7.80;;;;;;;7.73;77.07;96725.20;104793;1285;22492;-79
2022/11/09 02:55:19;;;;;;;13.30;8.80;;;;;;;7.73;77.18;96721.92;104812;1300;22476;-79
2022/11/09 02:57:50;;;;;;;11.90;8.60;;;;;;;7.76;77.16;96725.65;104800;1286;22487;-79
2022/11/09 03:00:23;;;;;;;12.60;7.90;;;;;;;7.71;77.11;96730.31;104790;1292;22499;-79
2022/11/09 03:02:56;;;;;;;11.90;7.80;;;;;;;7.72;77.20;96736.59;104791;1308;22471;-79
2022/11/09 03:05:27;;;;;;;13.20;8.60;;;;;;;7.76;77.29;96731.25;104806;1293;22695;-79
2022/11/09 03:08:01;;;;;;;10.20;7.20;;;;;;;7.79;77.37;96736.27;104733;1308;25148;-79
2022/11/09 03:10:32;;;;;;;10.30;6.20;;;;;;;7.79;77.01;96740.87;104807;1279;22516;-79
2022/11/09 03:13:03;;;;;;;12.50;8.70;;;;;;;7.80;77.29;96738.96;104798;1300;22516;-80
2022/11/09 03:15:37;;;;;;;10.70;7.00;;;;;;;7.80;77.00;96741.55;104794;1292;23067;-79
2022/11/09 03:18:08;;;;;;;12.10;8.30;;;;;;;7.77;76.88;96746.72;104724;1308;24314;-79
2022/11/09 03:20:39;;;;;;;10.00;7.30;;;;;;;7.73;76.86;96746.05;104752;1285;25280;-79
2022/11/09 03:23:11;;;;;;;11.40;7.80;;;;;;;7.72;76.88;96749.20;104813;1300;22481;-79
2022/11/09 03:25:42;;;;;;;11.80;8.00;;;;;;;7.72;76.93;96741.61;104794;1308;22475;-79
2022/11/09 03:28:13;;;;;;;11.40;7.90;;;;;;;7.73;77.07;96740.56;104726;1308;23678;-79
2022/11/09 03:30:47;;;;;;;11.40;8.10;;;;;;;7.76;77.04;96742.23;104800;1292;22483;-79
2022/11/09 03:33:18;;;;;;;10.20;7.30;;;;;;;7.77;76.81;96742.70;104773;1286;22495;-80
2022/11/09 03:35:50;;;;;;;11.20;7.90;;;;;;;7.76;77.12;96736.90;104766;1296;22612;-79
2022/11/09 03:38:21;;;;;;;11.30;7.70;;;;;;;7.79;77.19;96736.91;104745;1300;22589;-79
2022/11/09 03:40:52;;;;;;;11.80;8.50;;;;;;;7.79;76.94;96737.01;104791;1302;22512;-79
2022/11/09 03:43:23;;;;;;;10.70;7.00;;;;;;;7.80;77.12;96737.76;104815;1286;22512;-79
2022/11/09 03:45:54;;;;;;;11.50;7.80;;;;;;;7.80;77.08;96730.36;104829;1293;22469;-79
2022/11/09 03:48:26;;;;;;;10.70;7.80;;;;;;;7.84;77.27;96731.32;104747;1308;23803;-79
2022/11/09 03:50:57;;;;;;;10.60;7.90;;;;;;;7.85;77.17;96728.31;104843;1308;22481;-79
2022/11/09 03:53:28;;;;;;;10.30;6.10;;;;;;;7.84;76.97;96723.77;104797;1284;22490;-79
2022/11/09 03:56:00;;;;;;;10.80;6.90;;;;;;;7.81;76.97;96723.19;104793;1306;22478;-79
2022/11/09 03:58:32;;;;;;;10.20;6.90;;;;;;;7.77;77.16;96723.76;104768;1293;22488;-79
2022/11/09 04:01:03;;;;;;;10.00;7.00;;;;;;;7.76;77.15;96726.98;104809;1292;25338;-79
2022/11/09 04:03:34;;;;;;;10.30;6.60;;;;;;;7.74;77.08;96718.51;104797;1295;22472;-79
2022/11/09 04:06:06;;;;;;;11.10;7.70;;;;;;;7.71;77.15;96719.96;104856;1307;22457;-79
2022/11/09 04:08:37;;;;;;;10.80;7.30;;;;;;;7.69;77.23;96714.36;104762;1293;33740;-79
2022/11/09 04:11:09;;;;;;;12.20;7.70;;;;;;;7.68;77.47;96713.63;104813;1300;22498;-78
2022/11/09 04:13:40;;;;;;;11.50;7.80;;;;;;;7.67;77.60;96718.06;104797;1308;22610;-79
2022/11/09 04:16:11;;;;;;;11.10;7.80;;;;;;;7.66;77.59;96716.73;104706;1307;27495;-78
2022/11/09 04:18:43;;;;;;;13.20;8.50;;;;;;;7.63;77.86;96717.31;104768;1293;22560;-79
2022/11/09 04:21:14;;;;;;;12.40;8.10;;;;;;;7.61;77.97;96705.75;104816;1307;22478;-78
2022/11/09 04:23:49;;;;;;;12.10;8.50;;;;;;;7.57;78.21;96712.71;104785;1308;22474;-79
2022/11/09 04:26:21;;;;;;;13.10;8.60;;;;;;;7.55;78.38;96715.40;104757;1302;22527;-79
2022/11/09 04:28:53;;;;;;;12.30;8.90;;;;;;;7.54;78.45;96717.35;104804;1308;22467;-79
2022/11/09 04:31:24;;;;;;;10.10;5.80;;;;;;;7.53;78.59;96723.05;104808;1293;22487;-78
2022/11/09 04:33:55;;;;;;;12.70;8.70;;;;;;;7.58;78.88;96725.81;104801;1300;22464;-79
2022/11/09 04:36:27;;;;;;;11.30;7.30;;;;;;;7.63;78.83;96719.67;104762;1286;32548;-78
2022/11/09 04:38:58;;;;;;;12.50;8.50;;;;;;;7.68;78.80;96726.51;104803;1287;22469;-78
2022/11/09 04:41:30;;;;;;;10.20;7.00;;;;;;;7.72;78.67;96723.30;104810;1301;22953;-79
2022/11/09 04:44:01;;;;;;;12.80;8.90;;;;;;;7.72;78.45;96718.27;104805;1302;22499;-79
2022/11/09 04:46:32;;;;;;;12.20;8.10;;;;;;;7.76;78.55;96724.73;104721;1308;26029;-78
2022/11/09 04:49:04;;;;;;;11.20;6.80;;;;;;;7.80;78.35;96725.66;104822;1299;22487;-79
2022/11/09 04:51:35;;;;;;;11.90;8.10;;;;;;;7.82;78.43;96722.35;104823;1308;22489;-79
2022/11/09 04:54:06;;;;;;;10.20;6.70;;;;;;;7.82;78.15;96724.61;104797;1286;22473;-79
2022/11/09 04:56:37;;;;;;;10.50;7.20;;;;;;;7.83;78.09;96722.71;104739;1308;22475;-78
2022/11/09 04:59:08;;;;;;;12.00;8.10;;;;;;;7.84;77.95;96724.46;104784;1308;23578;-79
2022/11/09 05:01:39;;;;;;;11.30;7.50;;;;;;;7.76;77.79;96722.90;104781;1300;24240;-79
2022/11/09 05:04:11;;;;;;;10.90;6.70;;;;;;;7.66;77.84;96719.06;104817;1302;22469;-79
2022/11/09 05:06:42;;;;;;;11.10;8.10;;;;;;;7.60;78.01;96714.05;104763;1292;22476;-79
2022/11/09 05:09:14;;;;;;;11.70;8.10;;;;;;;7.56;78.21;96714.98;104823;1299;22479;-79
2022/11/09 05:11:45;;;;;;;11.40;7.50;;;;;;;7.54;78.26;96712.55;104864;1300;22508;-79
2022/11/09 05:14:17;;;;;;;11.20;6.50;;;;;;;7.51;78.33;96715.39;104794;1308;22471;-79
2022/11/09 05:16:48;;;;;;;12.00;7.30;;;;;;;7.48;78.39;96712.79;104775;1308;22696;-79
2022/11/09 05:19:19;;;;;;;12.00;7.60;;;;;;;7.46;78.67;96707.34;104828;1308;22489;-79
2022/11/09 05:21:53;;;;;;;12.60;7.90;;;;;;;7.45;78.70;96707.38;104814;1308;22505;-79
2022/11/09 05:24:25;;;;;;;11.00;7.60;;;;;;;7.43;78.78;96708.20;104817;1290;25462;-78
2022/11/09 05:26:56;;;;;;;12.40;8.00;;;;;;;7.44;78.75;96704.73;104768;1308;22483;-79
2022/11/09 05:29:27;;;;;;;11.90;8.00;;;;;;;7.44;78.95;96701.41;104809;1299;22957;-79
2022/11/09 05:31:59;;;;;;;11.00;7.10;;;;;;;7.43;78.97;96692.48;104817;1287;22470;-79
2022/11/09 05:34:31;;;;;;;11.80;7.70;;;;;;;7.45;79.12;96699.58;104803;1290;23062;-78
2022/11/09 05:37:02;;;;;;;12.80;8.90;;;;;;;7.47;79.13;96694.54;104784;1282;22482;-78
2022/11/09 05:39:33;;;;;;;11.50;8.70;;;;;;;7.47;79.22;96698.45;104790;1305;25268;-78
2022/11/09 05:42:05;;;;;;;11.00;7.70;;;;;;;7.53;79.22;96689.17;104797;1305;22477;-79
2022/11/09 05:44:36;;;;;;;13.70;8.80;;;;;;;7.59;79.37;96691.68;104800;1301;22500;-79
2022/11/09 05:47:11;;;;;;;10.20;6.50;;;;;;;7.65;79.24;96689.71;104727;1301;23791;-79
2022/11/09 05:49:42;;;;;;;12.00;8.10;;;;;;;7.73;79.15;96691.27;104794;1308;24332;-79
2022/11/09 05:52:13;;;;;;;13.60;8.70;;;;;;;7.79;79.10;96692.14;104828;1294;22914;-79
2022/11/09 05:54:45;;;;;;;11.20;6.90;;;;;;;7.80;78.83;96693.20;104788;1308;22540;-79
2022/11/09 05:57:18;;;;;;;11.90;8.50;;;;;;;7.82;78.71;96688.40;104752;1292;24957;-79
2022/11/09 05:59:52;;;;;;;11.60;8.20;;;;;;;7.83;78.71;96695.84;104819;1298;26322;-79
2022/11/09 06:02:24;;;;;;;10.00;6.60;;;;;;;7.91;78.59;96687.44;104820;1283;22512;-79
2022/11/09 06:04:56;;;;;;;12.40;8.50;;;;;;;8.02;78.47;96692.86;104853;1308;24496;-79
2022/11/09 06:07:27;;;;;;;11.50;8.10;;;;;;;8.14;78.27;96687.09;104757;1308;24368;-79
2022/11/09 06:10:01;;;;;;;12.20;7.70;;;;;;;8.33;77.92;96686.40;104808;1308;22495;-79
2022/11/09 06:12:35;;;;;;;11.80;8.90;;;;;;;8.61;77.57;96675.89;104818;1287;22473;-79
2022/11/09 06:15:07;;;;;;;11.10;7.60;;;;;;;8.92;76.73;96682.92;104841;1300;22481;-78
2022/11/09 06:17:39;;;;;;;10.70;7.50;;;;;;;9.15;75.72;96682.42;104754;1300;22478;-79
2022/11/09 06:20:12;;;;;;;10.30;7.80;;;;;;;9.30;75.02;96685.31;104807;1285;22492;-79
2022/11/09 06:22:43;;;;;;;10.40;6.90;;;;;;;9.39;74.42;96690.70;104821;1285;27668;-78
2022/11/09 06:25:14;;;;;;;11.00;7.90;;;;;;;9.51;73.72;96695.15;104824;1308;24350;-79
2022/11/09 06:27:46;;;;;;;13.30;8.60;;;;;;;9.68;73.36;96702.30;104768;1307;22538;-78
2022/11/09 06:30:17;;;;;;;10.80;8.30;;;;;;;9.86;72.66;96707.27;104801;1307;22482;-79
2022/11/09 06:32:49;;;;;;;10.50;7.80;;;;;;;10.04;72.15;96706.98;104786;1307;25270;-79
2022/11/09 06:35:25;;;;;;;9.80;6.60;;;;;;;10.24;71.53;96703.21;104789;1293;22483;-79
2022/11/09 06:37:58;;;;;;;10.90;8.20;;;;;;;10.44;70.82;96695.30;104807;1286;22481;-79
2022/11/09 06:40:32;;;;;;;11.10;7.80;;;;;;;10.63;70.16;96697.51;104823;1308;22485;-79
2022/11/09 06:43:06;;;;;;;12.00;8.70;;;;;;;10.80;69.36;96703.06;104804;1294;24724;-79
2022/11/09 06:45:37;;;;;;;11.00;8.70;;;;;;;10.92;68.89;96703.14;104811;1300;22478;-79
2022/11/09 06:48:10;;;;;;;9.10;7.20;;;;;;;11.11;68.12;96710.04;104756;1286;22480;-79
2022/11/09 06:50:41;;;;;;;10.10;7.90;;;;;;;11.25;66.95;96707.74;104812;1307;23252;-79
2022/11/09 06:53:14;;;;;;;9.50;7.80;;;;;;;11.31;66.79;96703.44;104800;1300;23276;-79
2022/11/09 06:55:45;;;;;;;10.80;9.30;;;;;;;11.42;66.44;96707.04;104828;1286;22474;-79
2022/11/09 06:58:18;;;;;;;7.30;5.40;;;;;;;11.52;65.86;96696.26;104778;1308;22463;-79
2022/11/09 07:00:49;;;;;;;12.90;9.00;;;;;;;11.33;65.41;96708.63;104849;1301;24757;-79
2022/11/09 07:03:23;;;;;;;11.00;8.80;;;;;;;11.34;65.88;96709.52;104833;1308;24251;-80
2022/11/09 07:05:54;;;;;;;10.00;8.90;;;;;;;11.55;65.41;96710.74;104805;1308;22466;-80
2022/11/09 07:08:28;;;;;;;12.90;9.80;;;;;;;11.67;65.11;96700.05;104778;1300;24355;-79
2022/11/09 07:11:05;;;;;;;9.00;6.90;;;;;;;11.84;64.31;96702.86;104801;1301;25489;-79
2022/11/09 07:13:36;;;;;;;8.80;7.00;;;;;;;11.90;63.93;96704.86;104791;1308;22469;-79
2022/11/09 07:16:10;;;;;;;10.50;6.60;;;;;;;12.04;63.26;96708.94;104815;1302;22473;-79
2022/11/09 07:18:41;;;;;;;9.30;7.20;;;;;;;12.10;62.56;96699.73;104791;1308;36943;-79
2022/11/09 07:21:13;;;;;;;9.10;7.10;;;;;;;12.14;61.91;96696.33;104803;1296;22483;-80
2022/11/09 07:23:47;;;;;;;9.40;7.20;;;;;;;12.18;61.68;96693.24;104806;1308;22494;-81
2022/11/09 07:26:18;;;;;;;7.80;6.10;;;;;;;12.27;61.84;96696.95;104760;1292;25856;-79
2022/11/09 07:28:49;;;;;;;8.00;6.60;;;;;;;12.40;61.31;96689.86;104797;1309;24312;-80
2022/11/09 07:31:28;;;;;;;8.50;6.60;;;;;;;12.60;61.28;96702.77;104785;1309;22530;-79
2022/11/09 07:34:03;;;;;;;9.40;7.30;;;;;;;12.76;60.49;96698.38;104823;1287;22574;-79
2022/11/09 07:36:35;;;;;;;9.40;7.00;;;;;;;12.80;60.35;96708.20;104753;1295;24282;-79
2022/11/09 07:39:07;;;;;;;9.00;6.00;;;;;;;12.94;59.95;96703.63;104011;1286;1076631;-79
2022/11/09 07:41:38;;;;;;;8.90;7.30;;;;;;;12.99;59.21;96713.98;104766;1293;22475;-79
2022/11/09 07:44:13;;;;;;;7.90;6.30;;;;;;;13.12;59.20;96707.27;104744;1295;22494;-80
2022/11/09 07:46:44;;;;;;;9.20;7.40;;;;;;;12.90;58.29;96707.09;104714;1308;26210;-80
2022/11/09 07:49:16;;;;;;;9.80;7.10;;;;;;;12.63;58.87;96713.73;104754;1304;22512;-80
2022/11/09 07:51:47;;;;;;;7.90;6.30;;;;;;;12.85;59.77;96719.95;104718;1308;22482;-79
2022/11/09 07:54:19;;;;;;;9.30;7.10;;;;;;;13.27;59.28;96714.92;104760;1303;22466;-79
2022/11/09 07:56:50;;;;;;;7.30;5.50;;;;;;;13.51;58.28;96713.44;104671;1310;23424;-80
2022/11/09 07:59:21;;;;;;;8.60;6.00;;;;;;;13.48;57.98;96717.12;104731;1286;25318;-80
2022/11/09 08:01:52;;;;;;;10.70;7.00;;;;;;;13.67;58.01;96717.21;104735;1293;22478;-79
2022/11/09 08:04:26;;;;;;;9.40;6.90;;;;;;;13.84;57.44;96716.73;104747;1290;22529;-80
2022/11/09 08:06:57;;;;;;;9.30;6.40;;;;;;;13.83;56.97;96711.41;104702;1310;22473;-80
2022/11/09 08:09:29;;;;;;;8.80;6.80;;;;;;;13.87;57.62;96716.95;104701;1310;22519;-80
2022/11/09 08:12:03;;;;;;;9.20;7.20;;;;;;;14.28;57.76;96716.44;104760;1286;22479;-80
2022/11/09 08:14:36;;;;;;;8.90;6.50;;;;;;;14.50;57.39;96714.29;104780;1308;23839;-80
2022/11/09 08:17:07;;;;;;;9.90;7.40;;;;;;;14.35;56.65;96711.06;104690;1309;22808;-81
2022/11/09 08:19:38;;;;;;;9.30;7.20;;;;;;;14.21;56.78;96716.85;104744;1293;22487;-81
2022/11/09 08:22:10;;;;;;;8.30;6.70;;;;;;;13.87;57.02;96718.33;104771;1302;22478;-80
2022/11/09 08:24:44;;;;;;;9.60;7.50;;;;;;;13.51;57.33;96713.77;104817;1278;22522;-81
2022/11/09 08:27:15;;;;;;;10.20;7.00;;;;;;;13.18;57.35;96713.58;104758;1310;22468;-80
2022/11/09 08:29:46;;;;;;;10.10;6.10;;;;;;;12.80;58.61;96712.20;104817;1310;22475;-80
2022/11/09 08:32:17;;;;;;;9.20;7.10;;;;;;;12.43;59.07;96708.95;104828;1286;22642;-79
2022/11/09 08:34:50;;;;;;;10.30;7.10;;;;;;;12.09;59.89;96715.09;104826;1309;22495;-80
2022/11/09 08:37:21;;;;;;;10.00;7.00;;;;;;;11.83;60.99;96711.45;104718;1286;22478;-80
2022/11/09 08:39:52;;;;;;;11.90;8.70;;;;;;;11.67;61.85;96710.17;104753;1300;22505;-80
2022/11/09 08:42:24;;;;;;;11.70;8.80;;;;;;;11.60;62.30;96710.22;104763;1293;24257;-79
2022/11/09 08:44:55;;;;;;;12.80;7.20;;;;;;;11.52;63.02;96705.02;104764;1295;22477;-80
2022/11/09 08:47:26;;;;;;;10.80;8.60;;;;;;;11.49;63.41;96704.31;104754;1310;22492;-79
2022/11/09 08:50:00;;;;;;;12.50;5.90;;;;;;;11.45;63.80;96697.67;104799;1310;25490;-79
2022/11/09 08:52:32;;;;;;;11.10;8.40;;;;;;;11.37;64.15;96696.31;104809;1295;25427;-79
2022/11/09 08:55:04;;;;;;;10.10;7.70;;;;;;;11.30;64.43;96697.13;104801;1309;22486;-79
2022/11/09 08:57:35;;;;;;;13.80;9.70;;;;;;;11.29;64.72;96690.13;104770;1309;22487;-80
2022/11/09 09:00:08;;;;;;;12.70;8.30;;;;;;;11.34;65.03;96697.77;104840;1301;22558;-80
2022/11/09 09:02:40;;;;;;;11.70;8.00;;;;;;;11.39;64.92;96703.77;104854;1304;22475;-79
2022/11/09 09:05:11;;;;;;;10.20;6.90;;;;;;;11.39;64.89;96693.01;104830;1310;22494;-79
2022/11/09 09:07:42;;;;;;;10.30;7.30;;;;;;;11.40;65.13;96698.15;104743;1309;26961;-78
2022/11/09 09:10:14;;;;;;;12.60;7.20;;;;;;;11.47;65.36;96690.11;104848;1295;22502;-79
2022/11/09 09:12:45;;;;;;;12.20;9.00;;;;;;;11.53;65.26;96697.25;104818;1310;25473;-80
2022/11/09 09:15:16;;;;;;;10.10;6.90;;;;;;;11.58;65.09;96703.59;104790;1302;22476;-78
2022/11/09 09:17:48;;;;;;;12.10;7.20;;;;;;;11.64;65.01;96702.67;104722;1288;22504;-79
2022/11/09 09:20:19;;;;;;;9.50;7.30;;;;;;;11.75;64.97;96713.23;104804;1286;27784;-80
2022/11/09 09:22:51;;;;;;;11.90;8.10;;;;;;;11.82;64.88;96705.06;104832;1308;22488;-79
2022/11/09 09:25:22;;;;;;;11.40;8.10;;;;;;;11.86;64.96;96713.52;104841;1302;22475;-79
2022/11/09 09:27:53;;;;;;;9.20;6.00;;;;;;;11.86;64.85;96701.08;104714;1299;24187;-80
2022/11/09 09:30:26;;;;;;;11.40;6.90;;;;;;;11.81;64.90;96707.88;104740;1310;25483;-79
2022/11/09 09:33:01;;;;;;;9.40;6.20;;;;;;;11.83;65.30;96701.75;104740;1309;22490;-79
2022/11/09 09:35:32;;;;;;;12.20;6.60;;;;;;;11.92;65.19;96695.05;104769;1302;22498;-78
2022/11/09 09:38:03;;;;;;;12.80;6.00;;;;;;;11.97;64.92;96705.36;104748;1295;23307;-78
2022/11/09 09:40:40;;;;;;;10.20;7.30;;;;;;;11.99;65.19;96680.27;104802;1302;24334;-78
2022/11/09 09:43:23;;;;;;;9.40;6.60;;;;;;;12.09;65.62;96685.06;104824;1293;22477;-79
2022/11/09 09:45:56;;;;;;;10.40;6.90;;;;;;;12.27;65.35;96682.96;104798;1290;22584;-78
2022/11/09 09:48:32;;;;;;;10.40;8.00;;;;;;;12.30;64.80;96677.30;104688;1291;24101;-79
2022/11/09 09:51:10;;;;;;;10.00;6.50;;;;;;;12.26;64.70;96677.62;104755;1302;22467;-79
2022/11/09 09:53:49;;;;;;;10.10;7.00;;;;;;;12.26;64.71;96672.95;104754;1302;22487;-79
2022/11/09 09:56:24;;;;;;;11.30;8.10;;;;;;;12.32;64.66;96672.80;104715;1309;23650;-79
2022/11/09 09:59:05;;;;;;;11.30;7.70;;;;;;;12.46;65.08;96666.11;104798;1305;22496;-79
2022/11/09 10:01:40;;;;;;;10.80;7.20;;;;;;;12.62;64.58;96665.55;104818;1309;22476;-80
2022/11/09 10:04:18;;;;;;;11.70;5.80;;;;;;;12.62;63.68;96659.33;104785;1296;22509;-80
2022/11/09 10:07:02;;;;;;;10.40;7.60;;;;;;;12.56;63.94;96659.11;104816;1293;22498;-79
2022/11/09 10:09:50;;;;;;;11.40;8.80;;;;;;;12.60;63.62;96645.86;104867;1293;25390;-79
2022/11/09 10:12:30;;;;;;;10.00;6.60;;;;;;;12.63;63.94;96660.80;104797;1305;22951;-78
2022/11/09 10:15:13;;;;;;;9.50;5.20;;;;;;;12.67;63.39;96655.73;104792;1285;22528;-79
2022/11/09 10:17:53;;;;;;;11.00;6.80;;;;;;;12.66;63.51;96664.47;104761;1309;22467;-79
2022/11/09 10:20:36;;;;;;;10.10;7.60;;;;;;;12.72;63.62;96665.14;104789;1309;24430;-79
2022/11/09 10:23:20;;;;;;;9.90;7.20;;;;;;;12.73;63.40;96664.31;104815;1302;22511;-79
2022/11/09 10:26:00;;;;;;;9.90;6.00;;;;;;;12.66;63.38;96660.60;104775;1300;22500;-79
2022/11/09 10:28:32;;;;;;;7.20;4.80;;;;;;;12.59;63.68;96656.56;104788;1309;24339;-78
2022/11/09 10:31:16;;;;;;;12.50;6.90;;;;;;;12.58;63.75;96660.61;104800;1301;22465;-79
2022/11/09 10:33:53;;;;;;;9.10;6.50;;;;;;;12.57;63.68;96652.50;104793;1286;22475;-79
2022/11/09 10:36:31;;;;;;;12.00;8.40;;;;;;;12.55;63.94;96654.03;104777;1310;25244;-79
2022/11/09 10:39:03;;;;;;;10.40;7.60;;;;;;;12.61;64.00;96651.80;104778;1302;22508;-79
2022/11/09 10:41:39;;;;;;;11.30;8.00;;;;;;;12.65;64.06;96646.35;104778;1293;22467;-79
2022/11/09 10:44:16;;;;;;;11.30;8.70;;;;;;;12.75;63.93;96650.19;104824;1307;25230;-79
2022/11/09 10:47:11;;;;;;;13.90;8.90;;;;;;;12.77;63.50;96653.72;104777;1309;28332;-79
2022/11/09 10:49:43;;;;;;;10.50;7.50;;;;;;;12.74;63.51;96653.50;104783;1289;22558;-79
2022/11/09 10:52:38;;;;;;;10.30;7.70;;;;;;;12.75;63.56;96658.48;104740;1310;22538;-79
2022/11/09 10:55:24;;;;;;;10.10;7.30;;;;;;;12.82;63.94;96664.02;104752;1289;22481;-79
2022/11/09 10:58:00;;;;;;;10.50;7.70;;;;;;;13.00;64.08;96659.41;104798;1308;25613;-79
2022/11/09 11:00:32;;;;;;;12.00;7.80;;;;;;;13.07;63.47;96662.16;104840;1294;25017;-78
2022/11/09 11:03:16;;;;;;;12.00;7.90;;;;;;;13.00;63.27;96669.41;104851;1302;22475;-79
2022/11/09 11:05:58;;;;;;;10.30;7.40;;;;;;;13.00;63.22;96660.17;104816;1285;22469;-79
2022/11/09 11:08:41;;;;;;;9.50;7.20;;;;;;;13.02;63.62;96661.35;104762;1302;22543;-79
2022/11/09 11:11:23;;;;;;;11.00;8.00;;;;;;;13.02;63.44;96656.83;104792;1309;22558;-79
2022/11/09 11:14:14;;;;;;;13.20;8.90;;;;;;;13.03;63.45;96654.25;104766;1287;22486;-79
2022/11/09 11:16:46;;;;;;;11.40;8.00;;;;;;;13.05;63.42;96654.63;104714;1295;22571;-79
2022/11/09 11:19:44;;;;;;;12.10;8.40;;;;;;;13.09;63.26;96647.97;104742;1299;22504;-79
2022/11/09 11:22:22;;;;;;;14.70;8.60;;;;;;;13.19;63.48;96649.15;104577;1292;22965;-79
2022/11/09 11:24:57;;;;;;;12.10;7.90;;;;;;;13.30;63.30;96651.27;104785;1293;22479;-80
2022/11/09 11:27:37;;;;;;;13.70;9.80;;;;;;;13.35;63.14;96646.95;104771;1309;25374;-79
2022/11/09 11:30:14;;;;;;;9.80;6.60;;;;;;;13.39;62.47;96648.53;104784;1286;22480;-79
2022/11/09 11:32:46;;;;;;;12.40;7.20;;;;;;;13.33;62.53;96645.91;104836;1311;22624;-79
2022/11/09 11:35:31;;;;;;;10.20;7.10;;;;;;;13.31;62.75;96644.09;104811;1303;25384;-79
2022/11/09 11:38:12;;;;;;;10.50;7.70;;;;;;;13.36;62.80;96642.51;104718;1294;22490;-79
2022/11/09 11:40:54;;;;;;;12.60;8.30;;;;;;;13.51;62.38;96641.65;104778;1297;22487;-79
2022/11/09 11:43:35;;;;;;;10.60;7.20;;;;;;;13.63;62.35;96642.32;104748;1302;22493;-79
2022/11/09 11:46:28;;;;;;;10.20;7.20;;;;;;;13.77;61.77;96647.20;104744;1302;24269;-79
2022/11/09 11:49:22;;;;;;;11.00;7.40;;;;;;;13.90;61.28;96644.96;104856;1302;22529;-80
2022/11/09 11:52:02;;;;;;;11.20;7.10;;;;;;;13.97;60.74;96645.11;104832;1308;22478;-79